San Diego, CA

9:37 PM PDT on July 27, 2016 (GMT -0700)
Miramar Marine Corps Air Station-Mitscher | | Change Station

Elev 476 ft 32.86 °N, 117.14 °W | Updated 42 minutes ago

Clear
Clear
76 °F
Feels Like 76 °F
N
5
Wind Variable Wind from WSW

Today
High -- | Low -- °F
--% Chance of Precip.
Yesterday
High -- | Low -- °F
Precip. -- in
Pressure 29.89 in
Visibility 10.0 miles
Clouds Clear
Dew Point 62 °F
Humidity 62%
Rainfall 0.00 in
Snow Depth Not available.
5:59 AM 7:50 PM
Last Quarter, 36% visible
METAR KNKX 280355Z 25004KT 10SM CLR 24/17 A2990 RMK AO2 SLP120 T02440167 $
Pressure 29.89 in
Visibility 10.0 miles
Clouds Clear
Dew Point 62 °F
Humidity 62%
Rainfall 0.00 in
Snow Depth Not available.
5:59 AM 7:50 PM
Last Quarter, 36% visible
METAR KNKX 280355Z 25004KT 10SM CLR 24/17 A2990 RMK AO2 SLP120 T02440167 $

10-Day Weather Forecast

Almanac

Astronomy

Jul. 27, 2016 Rise Set
Actual Time
Civil Twilight
Nautical Twilight
Astronomical Twilight
Moon
Length of Visible Light
Length of Day
Tomorrow will be .
, % of the Moon is Illuminated

Today's Extremes

State Highs State Lows

Community

WunderPhotos

Upload Photos

1,928,060 photos uploaded!

WunderBlog® & News

Nearby

Air Quality

  Air Quality AQ Index Pollutant
Not available.

Snow Depth

Station Depth Elevation

Earthquake Activity

City Distance Mag. Time & Date
Minimum magnitude displayed is 2.5.

Coastal Water Temperatures

Place Temperature

Stations

Nearby Weather Stations

Station Location Temp. Windchill Dew Point Humidity Wind Precip. Elev Updated Type
                   

Watches & Warnings

There are currently no watches in effect.